Time;durP1;ratioP1;P1;durP2;ratioP2;P2;SDS_P1;SDS_P2;PMS_P1;PMS_P2;Temp;Humidity;BMP_temperature;BMP_pressure;BME280_temperature;BME280_humidity;BME280_pressure;Samples;Min_cycle;Max_cycle;Signal;HPM_P1;HPM_P2
2022/08/18 00:00:13;;;;;;;15.05;12.15;;;23.60;50.70;;;;;;5019444;28;20050;-45
2022/08/18 00:02:42;;;;;;;12.40;10.95;;;23.60;50.70;;;;;;5024411;28;20053;-43
2022/08/18 00:05:11;;;;;;;15.50;12.88;;;23.60;50.80;;;;;;5024786;28;20060;-44
2022/08/18 00:07:39;;;;;;;15.40;12.85;;;23.50;50.70;;;;;;5024099;28;20053;-49
2022/08/18 00:10:07;;;;;;;16.65;14.10;;;23.50;50.80;;;;;;5021581;28;20053;-48
2022/08/18 00:12:38;;;;;;;15.60;13.25;;;23.50;50.80;;;;;;5022701;28;20072;-49
2022/08/18 00:15:07;;;;;;;18.35;12.93;;;23.50;50.90;;;;;;5023405;28;20489;-45
2022/08/18 00:17:36;;;;;;;15.02;12.77;;;23.50;50.90;;;;;;5022614;28;20057;-45
2022/08/18 00:20:05;;;;;;;18.05;14.63;;;23.40;50.90;;;;;;5020375;28;20488;-47
2022/08/18 00:22:32;;;;;;;16.35;14.32;;;23.40;51.00;;;;;;5021379;28;20485;-47
2022/08/18 00:24:59;;;;;;;21.08;15.90;;;23.40;51.00;;;;;;5023006;28;20049;-45
2022/08/18 00:27:30;;;;;;;26.80;19.45;;;23.30;51.10;;;;;;5023504;28;20053;-46
2022/08/18 00:30:01;;;;;;;27.98;20.67;;;23.30;51.30;;;;;;5018286;28;20057;-43
2022/08/18 00:32:32;;;;;;;27.13;20.27;;;23.20;51.50;;;;;;5019798;28;20041;-45
2022/08/18 00:35:06;;;;;;;20.55;17.30;;;23.20;51.60;;;;;;5022682;28;20053;-45
2022/08/18 00:37:33;;;;;;;;;;;23.10;51.60;;;;;;5023026;28;21104;-43
2022/08/18 00:40:01;;;;;;;16.48;14.55;;;23.10;51.40;;;;;;5020633;28;19921;-47
2022/08/18 00:42:30;;;;;;;24.27;18.40;;;23.00;51.60;;;;;;5022028;28;20428;-44
2022/08/18 00:45:02;;;;;;;18.02;15.15;;;23.00;51.80;;;;;;5022660;28;20405;-43
2022/08/18 00:47:30;;;;;;;18.60;14.30;;;22.90;51.90;;;;;;5020881;28;20054;-50
2022/08/18 00:49:58;;;;;;;14.05;12.05;;;22.90;51.90;;;;;;5020025;28;20049;-43
2022/08/18 00:52:26;;;;;;;15.93;13.48;;;22.90;51.90;;;;;;5021209;28;20425;-49
2022/08/18 00:54:55;;;;;;;15.65;13.23;;;22.80;51.90;;;;;;5023120;28;20425;-47
2022/08/18 00:57:25;;;;;;;17.38;14.63;;;22.80;51.90;;;;;;5022429;28;20501;-46
2022/08/18 01:00:02;;;;;;;15.88;13.70;;;22.80;51.90;;;;;;5018961;28;21225;-45
2022/08/18 01:02:35;;;;;;;17.50;14.93;;;22.80;51.90;;;;;;5022447;28;20064;-45
2022/08/18 01:05:08;;;;;;;16.73;13.80;;;22.80;52.10;;;;;;5022702;28;20481;-45
2022/08/18 01:07:41;;;;;;;18.77;14.50;;;22.70;52.00;;;;;;5022891;28;20508;-43
2022/08/18 01:10:13;;;;;;;15.38;13.10;;;22.70;52.10;;;;;;5020715;28;20429;-45
2022/08/18 01:12:40;;;;;;;20.60;15.73;;;22.70;52.20;;;;;;5021595;28;20501;-44
2022/08/18 01:15:09;;;;;;;15.15;12.70;;;22.70;52.40;;;;;;5018979;28;20057;-43
2022/08/18 01:23:44;;;;;;;15.93;14.13;;;22.60;52.50;;;;;;4961899;28;21086;-44
2022/08/18 01:26:12;;;;;;;15.68;13.25;;;22.60;52.40;;;;;;4961866;28;20070;-44
2022/08/18 01:28:41;;;;;;;15.93;13.50;;;22.60;52.40;;;;;;4987161;28;20397;-44
2022/08/18 01:31:10;;;;;;;16.27;14.07;;;22.60;52.40;;;;;;5019209;28;20057;-43
2022/08/18 01:33:41;;;;;;;16.15;13.52;;;22.50;52.40;;;;;;5019728;28;20234;-45
2022/08/18 01:36:15;;;;;;;18.98;14.60;;;22.50;52.40;;;;;;5022736;28;20076;-46
2022/08/18 01:38:43;;;;;;;;;;;22.50;52.40;;;;;;5019295;28;20049;-44
2022/08/18 01:41:10;;;;;;;16.70;14.23;;;22.50;52.20;;;;;;5014780;28;19924;-46
2022/08/18 01:43:38;;;;;;;22.05;15.88;;;22.50;52.20;;;;;;5020865;28;20068;-46
2022/08/18 01:46:07;;;;;;;17.17;14.95;;;22.50;52.30;;;;;;5022089;28;20080;-43
2022/08/18 01:48:36;;;;;;;20.42;14.52;;;22.40;52.40;;;;;;5021724;28;20429;-48
2022/08/18 01:51:06;;;;;;;17.42;14.35;;;22.40;52.50;;;;;;5019328;28;20058;-44
2022/08/18 01:53:33;;;;;;;17.33;13.85;;;22.40;52.60;;;;;;5022639;28;20053;-49
2022/08/18 01:56:04;;;;;;;18.27;14.23;;;22.40;52.60;;;;;;5021335;28;20050;-48
2022/08/18 01:58:31;;;;;;;19.15;15.75;;;22.40;52.70;;;;;;5020462;28;20489;-44
2022/08/18 02:01:00;;;;;;;18.20;15.15;;;22.30;52.80;;;;;;5015085;28;20049;-44
2022/08/18 02:03:33;;;;;;;18.70;16.27;;;22.30;52.80;;;;;;5022852;28;20095;-46
2022/08/18 02:06:02;;;;;;;18.70;15.55;;;22.30;53.00;;;;;;5022738;28;20068;-45
2022/08/18 02:08:30;;;;;;;21.92;16.65;;;22.30;53.00;;;;;;5019965;28;20049;-44
2022/08/18 02:10:58;;;;;;;21.60;17.33;;;22.20;53.00;;;;;;5018370;28;20053;-44
2022/08/18 02:13:27;;;;;;;19.77;15.90;;;22.20;53.10;;;;;;5021712;28;20054;-44
2022/08/18 02:15:54;;;;;;;17.90;15.90;;;22.20;53.10;;;;;;5019223;28;20524;-45
2022/08/18 02:18:26;;;;;;;22.27;17.00;;;22.20;53.10;;;;;;5021317;28;20072;-44
2022/08/18 02:20:53;;;;;;;20.92;16.85;;;22.20;53.20;;;;;;5018341;28;20481;-44
2022/08/18 02:23:21;;;;;;;21.70;16.73;;;22.20;53.20;;;;;;5022293;28;20064;-42
2022/08/18 02:25:49;;;;;;;24.42;17.88;;;22.10;53.20;;;;;;5024959;28;20056;-43
2022/08/18 02:28:16;;;;;;;24.40;18.38;;;22.20;53.30;;;;;;5025986;28;20064;-41
2022/08/18 02:30:45;;;;;;;19.48;16.08;;;22.10;53.20;;;;;;5019549;28;20053;-42
2022/08/18 02:33:12;;;;;;;18.05;15.93;;;22.10;53.30;;;;;;5026183;28;20061;-43
2022/08/18 02:35:42;;;;;;;19.58;15.95;;;22.10;53.30;;;;;;5025919;28;20057;-44
2022/08/18 02:38:10;;;;;;;20.73;16.52;;;22.10;53.40;;;;;;5022195;28;20061;-43
2022/08/18 02:40:37;;;;;;;21.60;17.58;;;22.00;53.40;;;;;;5023006;28;20493;-42
2022/08/18 02:43:07;;;;;;;22.30;17.92;;;22.00;53.50;;;;;;5024978;28;20508;-43
2022/08/18 02:45:36;;;;;;;20.38;15.57;;;22.00;53.60;;;;;;5022123;28;20050;-45
2022/08/18 02:48:06;;;;;;;20.42;16.75;;;22.00;53.50;;;;;;5024761;28;20053;-48
2022/08/18 02:50:33;;;;;;;19.70;16.52;;;22.00;53.50;;;;;;5018844;28;20045;-44
2022/08/18 02:53:02;;;;;;;20.73;16.13;;;22.00;53.50;;;;;;5024716;28;20065;-45
2022/08/18 02:55:29;;;;;;;26.58;20.23;;;21.90;53.40;;;;;;5019962;28;20053;-44
2022/08/18 02:57:57;;;;;;;30.30;24.10;;;21.90;53.50;;;;;;5018309;28;20973;-42
2022/08/18 03:00:24;;;;;;;28.73;22.50;;;21.90;53.90;;;;;;5014971;28;20056;-44
2022/08/18 03:02:53;;;;;;;30.17;23.50;;;21.90;53.90;;;;;;5025782;28;20580;-45
2022/08/18 03:05:21;;;;;;;33.70;26.98;;;21.80;53.90;;;;;;5024984;28;20412;-44
2022/08/18 03:07:49;;;;;;;32.08;26.90;;;21.80;54.30;;;;;;5023883;28;20429;-42
2022/08/18 03:10:16;;;;;;;32.13;24.77;;;21.80;54.50;;;;;;5019309;28;20045;-46
2022/08/18 03:12:44;;;;;;;26.42;22.17;;;21.70;54.60;;;;;;5018817;28;20053;-46
2022/08/18 03:15:11;;;;;;;27.08;21.50;;;21.70;54.70;;;;;;5025059;28;20060;-43
2022/08/18 03:17:39;;;;;;;24.63;19.85;;;21.60;54.70;;;;;;5023240;28;20050;-43
2022/08/18 03:20:07;;;;;;;25.85;21.02;;;21.60;54.90;;;;;;5021215;28;20053;-42
2022/08/18 03:22:37;;;;;;;22.58;19.10;;;21.60;54.90;;;;;;5025049;28;20061;-44
2022/08/18 03:25:05;;;;;;;24.08;18.42;;;21.60;54.80;;;;;;5022179;28;20058;-42
2022/08/18 03:27:32;;;;;;;24.70;18.92;;;21.60;54.70;;;;;;5024643;28;20061;-46
2022/08/18 03:30:01;;;;;;;21.33;18.02;;;21.60;54.70;;;;;;5021519;28;20049;-42
2022/08/18 03:32:29;;;;;;;21.45;17.73;;;21.60;54.70;;;;;;5019819;28;20519;-43
2022/08/18 03:34:56;;;;;;;25.02;18.27;;;21.60;54.60;;;;;;5020434;28;20053;-44
2022/08/18 03:37:23;;;;;;;28.15;19.77;;;21.60;54.70;;;;;;5020745;28;20049;-44
2022/08/18 03:39:52;;;;;;;23.90;19.88;;;21.60;54.70;;;;;;5020831;28;20060;-43
2022/08/18 03:42:19;;;;;;;25.63;18.83;;;21.60;54.80;;;;;;5020277;28;20054;-47
2022/08/18 03:44:46;;;;;;;25.05;20.67;;;21.60;54.80;;;;;;5018460;28;20049;-45
2022/08/18 03:47:14;;;;;;;26.13;19.42;;;21.60;54.90;;;;;;5023665;28;20072;-42
2022/08/18 03:49:41;;;;;;;23.33;18.65;;;21.60;54.90;;;;;;5021692;28;20060;-41
2022/08/18 03:52:10;;;;;;;25.23;20.08;;;21.60;55.00;;;;;;5023238;28;20064;-46
2022/08/18 03:54:37;;;;;;;21.67;18.63;;;21.60;55.00;;;;;;5022820;28;20524;-44
2022/08/18 03:57:08;;;;;;;21.70;17.30;;;21.60;54.90;;;;;;5022344;28;20410;-47
2022/08/18 03:59:35;;;;;;;22.00;17.13;;;21.60;54.90;;;;;;5020617;28;20060;-46
2022/08/18 04:02:03;;;;;;;19.25;16.60;;;21.60;54.80;;;;;;5016560;28;20116;-42
2022/08/18 04:04:31;;;;;;;19.35;16.80;;;21.60;54.80;;;;;;5020135;28;20401;-43
2022/08/18 04:07:03;;;;;;;22.50;17.58;;;21.60;54.80;;;;;;5020501;28;20531;-43
2022/08/18 04:09:31;;;;;;;21.88;17.40;;;21.60;54.80;;;;;;5015758;28;20517;-46
2022/08/18 04:12:10;;;;;;;22.98;19.58;;;21.60;54.90;;;;;;5032281;28;20061;-43
2022/08/18 04:14:38;;;;;;;24.45;20.15;;;21.60;55.10;;;;;;5039014;28;20053;-43
2022/08/18 04:17:06;;;;;;;28.17;21.35;;;21.60;55.10;;;;;;5032391;28;20055;-44
2022/08/18 04:19:34;;;;;;;28.83;21.80;;;21.60;55.30;;;;;;5034173;28;20052;-46
2022/08/18 04:22:02;;;;;;;26.80;21.33;;;21.60;55.30;;;;;;5031471;28;20060;-43
2022/08/18 04:24:32;;;;;;;24.50;18.80;;;21.60;55.40;;;;;;5031552;28;20056;-43
2022/08/18 04:27:01;;;;;;;21.08;17.70;;;21.60;55.40;;;;;;5018013;28;20057;-42
2022/08/18 04:29:29;;;;;;;23.27;18.10;;;21.60;55.30;;;;;;5034185;28;20049;-43
2022/08/18 04:32:01;;;;;;;23.88;20.48;;;21.60;55.30;;;;;;5028825;28;20045;-43
2022/08/18 04:34:29;;;;;;;25.15;21.25;;;21.60;55.40;;;;;;5036169;28;20052;-43
2022/08/18 04:36:56;;;;;;;25.25;19.55;;;21.60;55.30;;;;;;5040110;28;20060;-44
2022/08/18 04:39:24;;;;;;;22.80;19.65;;;21.60;55.40;;;;;;5039568;28;20053;-44
2022/08/18 04:41:52;;;;;;;24.92;20.45;;;21.60;55.50;;;;;;5038065;28;20543;-45
2022/08/18 04:44:21;;;;;;;25.10;20.80;;;21.60;55.60;;;;;;5032726;28;20053;-43
2022/08/18 04:46:51;;;;;;;28.02;22.35;;;21.60;55.70;;;;;;5036095;28;20056;-45
2022/08/18 04:49:24;;;;;;;29.05;22.27;;;21.60;55.80;;;;;;5036903;28;20053;-44
2022/08/18 04:54:39;;;;;;;31.23;24.42;;;21.70;55.90;;;;;;5044494;28;20072;-44
2022/08/18 04:57:08;;;;;;;42.60;29.00;;;21.70;56.00;;;;;;5032661;28;20063;-45
2022/08/18 04:59:36;;;;;;;44.72;29.58;;;21.70;56.00;;;;;;5026732;28;20048;-44
2022/08/18 05:02:06;;;;;;;53.28;33.67;;;21.70;56.10;;;;;;5030849;28;20080;-42
2022/08/18 05:04:37;;;;;;;57.35;35.30;;;21.70;56.20;;;;;;5033853;28;20049;-43
2022/08/18 05:07:05;;;;;;;55.05;34.75;;;21.70;56.30;;;;;;5038785;28;20064;-45
2022/08/18 05:09:33;;;;;;;59.70;36.58;;;21.70;56.30;;;;;;5037308;28;20053;-46
2022/08/18 05:12:01;;;;;;;60.20;38.50;;;21.70;56.40;;;;;;5039754;28;20049;-46
2022/08/18 05:14:29;;;;;;;54.85;35.33;;;21.80;56.60;;;;;;5034720;28;20515;-43
2022/08/18 05:16:58;;;;;;;48.70;32.10;;;21.80;57.10;;;;;;5036802;28;20056;-44
2022/08/18 05:19:26;;;;;;;42.20;29.75;;;21.80;56.70;;;;;;5041431;28;20710;-43
2022/08/18 05:21:56;;;;;;;55.15;35.97;;;21.80;56.70;;;;;;5032176;28;20417;-46
2022/08/18 05:24:24;;;;;;;56.20;34.88;;;21.80;56.80;;;;;;5036674;28;20061;-44
2022/08/18 05:26:52;;;;;;;35.33;24.88;;;21.80;56.80;;;;;;5040076;28;20057;-46
2022/08/18 05:29:21;;;;;;;29.25;21.48;;;21.80;56.30;;;;;;5030073;28;20063;-42
2022/08/18 05:31:49;;;;;;;37.88;25.40;;;21.70;56.20;;;;;;5035222;28;20052;-43
2022/08/18 05:34:19;;;;;;;91.38;51.50;;;21.70;56.30;;;;;;5035453;28;20516;-45
2022/08/18 05:37:00;;;;;;;84.43;46.22;;;21.70;57.20;;;;;;5030180;28;20053;-43
2022/08/18 05:39:35;;;;;;;46.40;31.85;;;21.70;57.70;;;;;;5040314;28;20055;-45
2022/08/18 05:42:06;;;;;;;43.15;28.38;;;21.60;57.50;;;;;;5038909;28;20049;-45
2022/08/18 05:44:37;;;;;;;33.50;22.75;;;21.70;57.50;;;;;;5037275;28;20476;-43
2022/08/18 05:47:07;;;;;;;32.72;23.10;;;21.60;57.40;;;;;;5039369;28;20068;-44
2022/08/18 05:49:35;;;;;;;43.28;27.58;;;21.60;57.40;;;;;;5035095;28;20064;-44
2022/08/18 05:52:08;;;;;;;51.58;33.08;;;21.60;57.40;;;;;;5030460;28;20045;-44
2022/08/18 05:57:31;;;;;;;61.92;42.25;;;21.60;57.70;;;;;;5045787;28;20064;-42
2022/08/18 05:59:58;;;;;;;58.85;41.83;;;21.60;57.90;;;;;;5033038;28;20064;-45
2022/08/18 06:02:32;;;;;;;67.38;41.00;;;21.70;58.20;;;;;;5036111;28;20053;-46
2022/08/18 06:05:04;;;;;;;42.88;30.38;;;21.60;58.70;;;;;;5036533;28;20155;-44
2022/08/18 06:07:37;;;;;;;38.53;28.15;;;21.70;58.40;;;;;;5036246;28;20051;-44
2022/08/18 06:10:07;;;;;;;61.63;40.80;;;21.60;58.40;;;;;;5035310;28;20058;-44
2022/08/18 06:12:38;;;;;;;55.17;40.67;;;21.60;58.70;;;;;;5037607;28;20048;-41
2022/08/18 06:15:13;;;;;;;47.45;34.92;;;21.60;59.10;;;;;;5037405;28;20048;-43
2022/08/18 06:18:11;;;;;;;50.03;36.90;;;21.60;59.30;;;;;;5033809;28;20489;-43
2022/08/18 06:20:55;;;;;;;53.05;40.78;;;21.60;59.50;;;;;;5026919;28;20497;-46
2022/08/18 06:23:31;;;;;;;50.42;36.88;;;21.50;59.60;;;;;;5037355;28;20500;-45
2022/08/18 06:26:09;;;;;;;51.63;38.30;;;21.50;59.60;;;;;;5036295;28;20054;-46
2022/08/18 06:28:53;;;;;;;53.75;33.45;;;21.50;59.80;;;;;;5025535;28;20417;-50
2022/08/18 06:31:28;;;;;;;44.83;34.30;;;21.50;59.80;;;;;;5030961;28;20049;-46
2022/08/18 06:34:09;;;;;;;43.22;31.88;;;21.50;59.80;;;;;;5030523;28;20053;-46
2022/08/18 06:36:43;;;;;;;42.97;32.85;;;21.50;60.00;;;;;;5029783;28;20052;-47
2022/08/18 06:39:25;;;;;;;45.53;34.35;;;21.50;59.90;;;;;;5034157;28;20053;-44
2022/08/18 06:41:53;;;;;;;50.35;35.05;;;21.50;60.80;;;;;;5029544;28;20052;-43
2022/08/18 06:44:27;;;;;;;47.10;35.95;;;21.50;60.10;;;;;;5037931;28;20397;-44
2022/08/18 06:47:03;;;;;;;58.28;43.17;;;21.40;60.40;;;;;;5042410;28;20061;-47
2022/08/18 06:49:41;;;;;;;60.72;42.42;;;21.40;60.70;;;;;;5035506;28;20496;-44
2022/08/18 06:52:24;;;;;;;65.68;43.50;;;21.30;60.90;;;;;;5033943;28;20048;-45
2022/08/18 06:54:55;;;;;;;59.80;41.83;;;21.30;61.50;;;;;;5035092;28;20060;-45
2022/08/18 06:57:27;;;;;;;62.67;43.80;;;21.20;61.40;;;;;;5039663;28;20061;-44
2022/08/18 06:59:58;;;;;;;68.95;46.08;;;21.20;61.70;;;;;;5033608;28;20524;-45
2022/08/18 07:02:42;;;;;;;65.00;44.25;;;21.20;61.90;;;;;;5032548;28;20057;-47
2022/08/18 07:05:19;;;;;;;81.50;51.30;;;21.20;62.10;;;;;;5040506;28;20489;-46
2022/08/18 07:08:04;;;;;;;83.22;53.35;;;21.20;62.40;;;;;;5033815;28;20056;-44
2022/08/18 07:10:36;;;;;;;83.45;54.00;;;21.10;63.20;;;;;;5038019;28;20528;-46
2022/08/18 07:13:21;;;;;;;91.35;55.92;;;21.10;63.10;;;;;;5043686;28;20064;-47
2022/08/18 07:15:50;;;;;;;91.05;56.13;;;21.00;63.40;;;;;;5036581;28;20064;-44
2022/08/18 07:18:27;;;;;;;92.63;56.13;;;21.10;63.70;;;;;;5041257;28;20044;-43
2022/08/18 07:20:57;;;;;;;107.35;61.33;;;21.00;64.00;;;;;;5035917;28;20064;-46
2022/08/18 07:23:28;;;;;;;136.77;70.60;;;21.00;64.10;;;;;;5038175;28;20053;-52
2022/08/18 07:26:07;;;;;;;144.07;71.78;;;21.00;64.50;;;;;;5039035;28;20493;-44
2022/08/18 07:28:37;;;;;;;141.18;73.38;;;20.90;64.70;;;;;;5043259;28;20522;-49
2022/08/18 07:31:13;;;;;;;140.88;72.65;;;20.90;64.90;;;;;;5035794;28;20057;-46
2022/08/18 07:33:42;;;;;;;134.85;69.47;;;20.90;65.00;;;;;;5040167;28;20064;-48
2022/08/18 07:36:12;;;;;;;130.40;68.47;;;20.80;65.20;;;;;;5034624;28;20053;-48
2022/08/18 07:38:44;;;;;;;122.03;68.35;;;20.80;65.40;;;;;;5034640;28;20061;-48
2022/08/18 07:41:19;;;;;;;118.57;62.65;;;20.80;65.60;;;;;;5038909;28;20499;-46
2022/08/18 07:43:58;;;;;;;127.13;65.47;;;20.80;65.60;;;;;;5043429;28;20404;-48
2022/08/18 07:46:37;;;;;;;130.90;67.88;;;20.80;65.80;;;;;;5038954;28;20484;-48
2022/08/18 07:49:05;;;;;;;141.25;67.55;;;20.70;65.70;;;;;;5043238;28;20053;-45
2022/08/18 07:51:47;;;;;;;139.30;67.60;;;20.70;66.00;;;;;;5039554;28;20053;-47
2022/08/18 07:54:27;;;;;;;136.40;64.70;;;20.60;66.10;;;;;;5040692;28;20424;-44
2022/08/18 07:57:03;;;;;;;125.10;59.05;;;20.70;66.10;;;;;;5039168;28;20048;-45
2022/08/18 07:59:41;;;;;;;127.10;62.33;;;20.70;66.00;;;;;;5036837;28;20064;-45
2022/08/18 08:02:22;;;;;;;135.93;63.38;;;20.70;65.90;;;;;;5039664;28;20053;-45
2022/08/18 08:04:59;;;;;;;124.63;63.10;;;20.70;66.00;;;;;;5043772;28;20068;-44
2022/08/18 08:07:30;;;;;;;113.20;55.83;;;20.80;65.90;;;;;;5043736;28;20064;-44
2022/08/18 08:10:17;;;;;;;136.80;64.70;;;20.80;65.70;;;;;;5037391;28;20429;-46
2022/08/18 08:12:54;;;;;;;124.30;59.58;;;20.80;65.80;;;;;;5036198;28;20812;-42
2022/08/18 08:15:31;;;;;;;113.90;56.95;;;20.80;65.70;;;;;;5039293;28;20092;-44
2022/08/18 08:18:08;;;;;;;114.85;56.15;;;20.80;65.50;;;;;;5039684;28;20053;-43
2022/08/18 08:20:42;;;;;;;105.88;54.03;;;20.90;65.50;;;;;;5036013;28;20409;-43
2022/08/18 08:23:20;;;;;;;99.90;50.05;;;20.90;65.40;;;;;;5030991;28;20057;-46
2022/08/18 08:25:59;;;;;;;88.45;47.97;;;20.90;65.20;;;;;;5041998;28;20053;-45
2022/08/18 08:28:40;;;;;;;87.75;47.65;;;21.00;65.00;;;;;;5034830;28;20489;-45
2022/08/18 08:31:13;;;;;;;105.65;53.28;;;21.10;64.90;;;;;;5032902;28;20053;-45
2022/08/18 08:33:44;;;;;;;121.65;59.40;;;21.20;64.70;;;;;;5043660;28;20059;-43
2022/08/18 08:36:17;;;;;;;113.40;54.97;;;21.20;64.40;;;;;;5038534;28;20722;-47
2022/08/18 08:38:46;;;;;;;111.10;54.72;;;21.30;64.10;;;;;;5042022;28;20056;-46
2022/08/18 08:41:21;;;;;;;100.05;51.55;;;21.40;63.80;;;;;;5038477;28;20053;-46
2022/08/18 08:43:57;;;;;;;116.03;56.30;;;21.40;63.40;;;;;;5042242;28;20056;-46
2022/08/18 08:46:28;;;;;;;122.50;60.30;;;21.50;63.30;;;;;;5038887;28;20068;-47
2022/08/18 08:49:02;;;;;;;122.55;57.30;;;21.50;63.10;;;;;;5043340;28;20072;-44
2022/08/18 08:51:36;;;;;;;94.18;50.33;;;21.50;62.90;;;;;;5037279;28;20048;-46
2022/08/18 08:54:08;;;;;;;119.72;58.58;;;21.50;62.80;;;;;;5040307;28;20073;-44
2022/08/18 08:56:44;;;;;;;120.78;58.25;;;21.60;62.80;;;;;;5037448;28;21211;-45
2022/08/18 08:59:15;;;;;;;112.95;55.67;;;21.60;62.70;;;;;;5038682;28;20053;-44
2022/08/18 09:01:51;;;;;;;131.07;62.92;;;21.60;62.70;;;;;;5035388;28;20084;-44
2022/08/18 09:04:30;;;;;;;125.47;61.92;;;21.60;62.80;;;;;;5042415;28;20049;-44
2022/08/18 09:07:12;;;;;;;115.38;55.83;;;21.70;62.90;;;;;;5037815;28;20060;-43
2022/08/18 09:09:54;;;;;;;122.72;59.80;;;21.70;62.80;;;;;;5038343;28;20061;-45
2022/08/18 09:12:36;;;;;;;115.75;58.60;;;21.70;62.80;;;;;;5040539;28;20505;-46
2022/08/18 09:15:20;;;;;;;117.60;57.33;;;21.70;62.50;;;;;;5029963;28;20049;-45
2022/08/18 09:18:15;;;;;;;84.28;45.90;;;21.80;62.30;;;;;;5039174;28;20055;-48
2022/08/18 09:21:03;;;;;;;88.57;47.33;;;21.80;62.10;;;;;;5030436;28;20064;-43
2022/08/18 09:23:33;;;;;;;107.35;53.05;;;21.90;61.90;;;;;;5034247;28;20044;-44
2022/08/18 09:26:23;;;;;;;110.35;56.40;;;21.90;61.60;;;;;;5039931;28;20057;-44
2022/08/18 09:28:57;;;;;;;89.07;47.97;;;21.90;61.60;;;;;;5033497;28;20459;-43
2022/08/18 09:31:28;;;;;;;93.30;48.03;;;21.90;61.50;;;;;;5032102;28;20412;-47
2022/08/18 09:34:20;;;;;;;98.75;51.97;;;22.00;61.30;;;;;;5033194;28;20049;-47
2022/08/18 09:37:12;;;;;;;102.18;51.80;;;22.00;61.10;;;;;;5033693;28;20055;-43
2022/08/18 09:42:36;;;;;;;101.50;52.65;;;22.00;60.90;;;;;;5047256;28;20056;-48
2022/08/18 09:45:30;;;;;;;87.80;47.22;;;22.00;60.90;;;;;;5040864;28;20057;-45
2022/08/18 09:48:04;;;;;;;75.38;43.67;;;22.00;60.90;;;;;;5039250;28;20061;-46
2022/08/18 09:50:52;;;;;;;97.30;51.58;;;22.00;60.90;;;;;;5035678;28;20405;-45
2022/08/18 09:53:36;;;;;;;93.57;49.97;;;22.00;61.30;;;;;;5037710;28;20049;-48
2022/08/18 09:56:03;;;;;;;;;;;22.00;61.00;;;;;;5038216;28;20064;-45
2022/08/18 09:58:51;;;;;;;97.30;51.83;;;22.10;60.70;;;;;;5040523;28;19943;-45
2022/08/18 10:01:31;;;;;;;97.70;50.55;;;22.00;60.50;;;;;;5030624;28;20052;-47
2022/08/18 10:04:29;;;;;;;102.35;53.53;;;22.10;61.30;;;;;;5030993;28;20073;-43
2022/08/18 10:07:19;;;;;;;101.78;54.00;;;22.00;60.90;;;;;;5032208;28;20056;-48
2022/08/18 10:10:11;;;;;;;104.90;53.17;;;22.00;60.70;;;;;;5029378;28;20123;-44
2022/08/18 10:13:01;;;;;;;101.25;53.28;;;22.00;61.00;;;;;;5034940;28;20045;-45
2022/08/18 10:15:42;;;;;;;90.70;48.72;;;21.90;61.00;;;;;;5037234;28;20057;-48
2022/08/18 10:18:25;;;;;;;89.15;48.95;;;21.90;61.00;;;;;;5035645;28;20504;-44
2022/08/18 10:21:02;;;;;;;94.43;49.33;;;22.00;61.10;;;;;;5027825;28;20401;-46
2022/08/18 10:23:46;;;;;;;101.53;55.15;;;22.00;60.90;;;;;;5034127;28;20052;-44
2022/08/18 10:26:32;;;;;;;;;;;22.00;60.40;;;;;;5039133;28;20063;-44
2022/08/18 10:29:02;;;;;;;108.47;55.58;;;22.00;60.30;;;;;;5037721;28;19925;-43
2022/08/18 10:31:31;;;;;;;83.72;44.17;;;22.10;61.30;;;;;;5027713;28;20064;-47
2022/08/18 10:34:05;;;;;;;83.07;43.88;;;22.10;60.80;;;;;;5038891;28;20052;-44
2022/08/18 10:36:44;;;;;;;79.57;42.72;;;22.10;60.90;;;;;;5035807;28;20055;-46
2022/08/18 10:39:13;;;;;;;118.50;56.03;;;22.20;61.00;;;;;;5039924;28;20056;-44
2022/08/18 10:41:55;;;;;;;105.35;55.80;;;22.30;60.80;;;;;;5035924;28;20056;-48
2022/08/18 10:44:23;;;;;;;102.70;54.70;;;22.30;60.80;;;;;;5039254;28;20408;-44
2022/08/18 10:46:52;;;;;;;102.30;53.40;;;22.40;60.80;;;;;;5044447;28;20068;-46
2022/08/18 10:49:24;;;;;;;104.57;54.15;;;22.50;59.90;;;;;;5042002;28;20520;-47
2022/08/18 10:52:08;;;;;;;103.57;53.25;;;22.50;59.80;;;;;;5038633;28;20060;-42
2022/08/18 10:54:50;;;;;;;101.53;55.20;;;22.60;59.40;;;;;;5035405;28;20062;-47
2022/08/18 10:57:27;;;;;;;97.53;54.42;;;22.60;59.00;;;;;;5041695;28;20053;-46
2022/08/18 11:00:01;;;;;;;98.72;52.47;;;22.60;58.80;;;;;;5040071;28;20057;-51
2022/08/18 11:02:39;;;;;;;;;;;22.70;58.60;;;;;;5041267;28;20057;-44
2022/08/18 11:05:10;;;;;;;95.70;52.20;;;22.70;58.60;;;;;;5041361;28;20375;-46
2022/08/18 11:07:42;;;;;;;102.78;54.63;;;22.80;58.70;;;;;;5043820;28;20068;-45
2022/08/18 11:10:19;;;;;;;85.25;47.47;;;22.80;58.80;;;;;;5038669;28;20048;-50
2022/08/18 11:13:04;;;;;;;96.03;53.63;;;22.80;58.60;;;;;;5042902;28;20056;-46
2022/08/18 11:15:43;;;;;;;78.15;44.38;;;22.90;58.40;;;;;;5039727;28;20056;-47
2022/08/18 11:18:27;;;;;;;73.03;42.75;;;22.90;58.40;;;;;;5042138;28;20057;-46
2022/08/18 11:21:30;;;;;;;62.15;37.85;;;23.00;58.30;;;;;;5039592;28;20419;-44
2022/08/18 11:24:09;;;;;;;73.13;42.95;;;23.10;58.40;;;;;;5041844;28;20507;-45
2022/08/18 11:26:39;;;;;;;78.45;45.80;;;23.10;57.90;;;;;;5038230;28;20052;-43
2022/08/18 11:29:22;;;;;;;68.90;41.33;;;23.30;56.80;;;;;;5041065;28;20052;-45
2022/08/18 11:31:50;;;;;;;61.17;37.97;;;23.30;56.40;;;;;;5035365;28;20060;-45
2022/08/18 11:34:27;;;;;;;64.32;38.03;;;23.30;56.10;;;;;;5043037;28;20052;-45
2022/08/18 11:36:58;;;;;;;56.70;35.65;;;23.30;55.30;;;;;;5030097;28;20053;-45
2022/08/18 11:39:27;;;;;;;56.33;35.15;;;23.40;55.50;;;;;;5043390;28;20061;-48
2022/08/18 11:41:56;;;;;;;52.75;34.70;;;23.40;55.00;;;;;;5038085;28;20060;-47
2022/08/18 11:44:27;;;;;;;52.33;34.25;;;23.40;54.90;;;;;;5042645;28;20063;-50
2022/08/18 11:46:56;;;;;;;56.47;34.00;;;23.40;54.60;;;;;;5042610;28;20053;-47
2022/08/18 11:49:31;;;;;;;59.15;35.25;;;23.50;54.20;;;;;;5038862;28;20049;-50
2022/08/18 11:52:04;;;;;;;52.75;32.45;;;23.50;54.30;;;;;;5033632;28;20528;-45
2022/08/18 11:54:39;;;;;;;59.28;37.08;;;23.50;54.50;;;;;;5034894;28;20060;-50
2022/08/18 11:57:38;;;;;;;62.17;38.03;;;23.50;54.10;;;;;;5031564;28;20546;-49
2022/08/18 12:00:41;;;;;;;66.60;40.17;;;23.60;54.10;;;;;;5036039;28;20057;-49
2022/08/18 12:03:15;;;;;;;67.40;40.05;;;23.60;54.40;;;;;;5040477;28;20061;-50
2022/08/18 12:05:45;;;;;;;59.15;36.10;;;23.70;54.50;;;;;;5038654;28;20063;-48
2022/08/18 12:08:22;;;;;;;57.17;36.22;;;23.80;54.70;;;;;;5040334;28;20433;-47
2022/08/18 12:11:02;;;;;;;53.47;32.97;;;23.80;53.50;;;;;;5023111;28;21338;-46
2022/08/18 12:13:31;;;;;;;53.15;32.55;;;23.90;53.50;;;;;;5027690;28;20054;-46
2022/08/18 12:16:16;;;;;;;56.30;35.40;;;24.00;53.80;;;;;;5006890;28;20057;-51
2022/08/18 12:18:43;;;;;;;53.85;34.22;;;24.00;53.20;;;;;;5027517;28;20068;-53
2022/08/18 12:21:10;;;;;;;56.83;35.75;;;24.10;53.00;;;;;;5025138;28;20052;-51
2022/08/18 12:23:41;;;;;;;39.47;26.88;;;24.10;52.90;;;;;;5037078;28;20052;-48
2022/08/18 12:26:10;;;;;;;40.78;26.95;;;24.20;53.20;;;;;;5021547;28;20068;-46
2022/08/18 12:28:38;;;;;;;53.15;30.98;;;24.20;53.00;;;;;;5032694;28;20096;-47
2022/08/18 12:31:06;;;;;;;55.35;32.97;;;24.20;52.60;;;;;;5036369;28;20497;-50
2022/08/18 12:33:34;;;;;;;49.40;32.30;;;24.20;51.80;;;;;;5044385;28;20060;-56
2022/08/18 12:36:01;;;;;;;42.88;28.88;;;24.20;51.40;;;;;;5040145;28;20508;-48
2022/08/18 12:38:28;;;;;;;45.70;27.65;;;24.20;51.80;;;;;;5040752;28;20052;-48
2022/08/18 12:40:56;;;;;;;42.45;27.15;;;24.30;52.20;;;;;;5037922;28;20053;-49
2022/08/18 12:43:24;;;;;;;48.25;31.52;;;24.40;52.20;;;;;;5040236;28;20057;-52
2022/08/18 12:45:52;;;;;;;45.00;31.52;;;24.40;52.00;;;;;;5041555;28;20053;-46
2022/08/18 12:48:19;;;;;;;56.05;34.33;;;24.40;52.00;;;;;;5044473;28;20049;-56
2022/08/18 12:50:46;;;;;;;49.58;33.65;;;24.50;51.50;;;;;;5039313;28;20055;-61
2022/08/18 12:53:13;;;;;;;51.33;31.70;;;24.50;51.50;;;;;;5042314;28;20061;-46
2022/08/18 12:55:44;;;;;;;47.25;30.73;;;24.50;51.70;;;;;;5041577;28;20053;-51
2022/08/18 12:58:11;;;;;;;43.75;29.20;;;24.50;51.50;;;;;;5038210;28;20178;-48
2022/08/18 13:00:40;;;;;;;46.78;29.92;;;24.60;51.50;;;;;;5026706;28;20057;-52
2022/08/18 13:03:08;;;;;;;48.88;30.60;;;24.60;51.20;;;;;;5012693;28;20057;-49
2022/08/18 13:05:36;;;;;;;47.92;31.30;;;24.60;51.10;;;;;;5024962;28;20504;-51
2022/08/18 13:08:05;;;;;;;45.20;29.63;;;24.60;50.80;;;;;;5014916;28;20064;-54